createdAt,value
2023-02-11T00:00:42.127Z,103410.84
2023-02-11T00:03:10.653Z,103415.34
2023-02-11T00:05:38.875Z,103406.38
2023-02-11T00:08:06.838Z,103400.97
2023-02-11T00:10:34.722Z,103389.41
2023-02-11T00:13:02.810Z,103379.59
2023-02-11T00:15:30.637Z,103382.25
2023-02-11T00:18:00.099Z,103383.16
2023-02-11T00:20:28.031Z,103384.94
2023-02-11T00:22:55.937Z,103373.31
2023-02-11T00:25:23.865Z,103368.84
2023-02-11T00:27:51.820Z,103369.66
2023-02-11T00:30:19.857Z,103371.47
2023-02-11T00:32:47.830Z,103370.56
2023-02-11T00:35:17.687Z,103375.00
2023-02-11T00:37:45.680Z,103374.16
2023-02-11T00:40:16.151Z,103367.91
2023-02-11T00:42:44.260Z,103359.00
2023-02-11T00:45:12.953Z,103375.91
2023-02-11T00:47:40.869Z,103359.88
2023-02-11T00:50:08.909Z,103355.38
2023-02-11T00:52:38.212Z,103344.66
2023-02-11T00:55:06.965Z,103341.09
2023-02-11T00:57:34.947Z,103333.84
2023-02-11T01:00:02.961Z,103339.22
2023-02-11T01:02:33.962Z,103340.19
2023-02-11T01:05:02.395Z,103346.47
2023-02-11T01:07:30.494Z,103347.38
2023-02-11T01:10:00.006Z,103352.69
2023-02-11T01:12:30.957Z,103351.75
2023-02-11T01:14:59.461Z,103358.97
2023-02-11T01:17:27.427Z,103363.41
2023-02-11T01:19:55.287Z,103359.84
2023-02-11T01:22:23.177Z,103349.13
2023-02-11T01:24:51.013Z,103345.56
2023-02-11T01:27:20.396Z,103356.31
2023-02-11T01:29:48.274Z,103350.03
2023-02-11T01:32:16.193Z,103346.50
2023-02-11T01:34:44.134Z,103355.41
2023-02-11T01:37:16.759Z,103359.91
2023-02-11T01:39:44.601Z,103363.47
2023-02-11T01:42:17.003Z,103369.72
2023-02-11T01:44:46.340Z,103363.47
2023-02-11T01:47:14.269Z,103354.53
2023-02-11T01:49:45.815Z,103353.63
2023-02-11T01:52:19.640Z,103342.84
2023-02-11T01:55:09.542Z,103331.22
2023-02-11T01:57:40.626Z,103325.06
2023-02-11T02:00:14.973Z,103315.22
2023-02-11T02:02:50.582Z,103326.78
2023-02-11T02:05:28.068Z,103310.75
2023-02-11T02:08:04.921Z,103315.22
2023-02-11T02:10:36.612Z,103331.31
2023-02-11T02:13:04.643Z,103317.91
2023-02-11T02:15:36.065Z,103324.13
2023-02-11T02:18:30.588Z,103320.53
2023-02-11T02:21:46.249Z,103326.78
2023-02-11T02:24:38.970Z,103320.53
2023-02-11T02:27:28.597Z,103311.66
2023-02-11T02:30:19.511Z,103298.22
2023-02-11T02:32:58.738Z,103313.44
2023-02-11T02:35:35.156Z,103300.03
2023-02-11T02:38:08.023Z,103301.84
2023-02-11T02:40:41.266Z,103316.94
2023-02-11T02:43:12.134Z,103312.56
2023-02-11T02:45:40.060Z,103308.94
2023-02-11T02:48:26.067Z,103297.28
2023-02-11T02:51:04.098Z,103299.97
2023-02-11T02:53:43.306Z,103300.03
2023-02-11T02:56:19.827Z,103300.94
2023-02-11T02:59:03.703Z,103313.38
2023-02-11T03:01:42.994Z,103297.34
2023-02-11T03:04:22.156Z,103290.22
2023-02-11T03:06:56.202Z,103287.56
2023-02-11T03:09:29.305Z,103286.69
2023-02-11T03:11:57.556Z,103288.47
2023-02-11T03:14:29.280Z,103276.78
2023-02-11T03:17:02.739Z,103271.47
2023-02-11T03:19:37.532Z,103273.25
2023-02-11T03:22:14.307Z,103275.97
2023-02-11T03:24:43.081Z,103285.75
2023-02-11T03:27:19.287Z,103292.84
2023-02-11T03:29:54.576Z,103288.44
2023-02-11T03:32:28.648Z,103282.16
2023-02-11T03:35:02.326Z,103278.63
2023-02-11T03:37:34.822Z,103292.00
2023-02-11T03:40:06.430Z,103291.16
2023-02-11T03:42:39.987Z,103287.56
2023-02-11T03:45:11.967Z,103284.00
2023-02-11T03:47:43.809Z,103282.22
2023-02-11T03:50:15.852Z,103284.94
2023-02-11T03:52:45.359Z,103285.81
2023-02-11T03:55:17.018Z,103286.66
2023-02-11T03:57:45.064Z,103288.47
2023-02-11T04:00:14.568Z,103282.25
2023-02-11T04:02:43.532Z,103284.91
2023-02-11T04:05:14.976Z,103271.50
2023-02-11T04:07:43.427Z,103279.53
2023-02-11T04:10:12.941Z,103284.00
2023-02-11T04:12:40.928Z,103284.88
2023-02-11T04:15:09.743Z,103284.00
2023-02-11T04:17:37.994Z,103277.66
2023-02-11T04:20:06.629Z,103284.88
2023-02-11T04:22:37.159Z,103287.59
2023-02-11T04:25:06.063Z,103282.25
2023-02-11T04:27:33.990Z,103296.53
2023-02-11T04:30:02.930Z,103312.63
2023-02-11T04:32:30.875Z,103316.19
2023-02-11T04:34:58.785Z,103319.78
2023-02-11T04:37:26.713Z,103329.59
2023-02-11T04:39:56.052Z,103332.28
2023-02-11T04:42:24.220Z,103348.38
2023-02-11T04:44:52.077Z,103354.63
2023-02-11T04:47:20.023Z,103353.66
2023-02-11T04:49:47.995Z,103352.81
2023-02-11T04:52:15.878Z,103346.59
2023-02-11T04:54:43.740Z,103348.34
2023-02-11T04:57:13.133Z,103339.44
2023-02-11T04:59:41.203Z,103332.25
2023-02-11T05:02:09.401Z,103332.28
2023-02-11T05:04:37.306Z,103334.09
2023-02-11T05:07:05.246Z,103335.88
2023-02-11T05:09:33.069Z,103350.13
2023-02-11T05:12:00.910Z,103348.38
2023-02-11T05:14:30.181Z,103359.09
2023-02-11T05:16:58.002Z,103372.50
2023-02-11T05:19:25.876Z,103373.38
2023-02-11T05:22:02.484Z,103398.44
2023-02-11T05:24:32.673Z,103397.56
2023-02-11T05:27:00.687Z,103397.53
2023-02-11T05:29:30.186Z,103411.84
2023-02-11T05:32:00.137Z,103420.78
2023-02-11T05:34:28.219Z,103430.59
2023-02-11T05:36:56.209Z,103419.88
2023-02-11T05:39:24.139Z,103418.97
2023-02-11T05:41:51.985Z,103430.59
2023-02-11T05:44:19.950Z,103444.00
2023-02-11T05:46:49.468Z,103457.41
2023-02-11T05:49:17.882Z,103467.16
2023-02-11T05:51:45.721Z,103485.13
2023-02-11T05:54:13.849Z,103492.28
2023-02-11T05:56:44.641Z,103484.22
2023-02-11T05:59:14.455Z,103483.31
2023-02-11T06:01:43.135Z,103491.38
2023-02-11T06:04:12.844Z,103490.50
2023-02-11T06:06:40.641Z,103475.28
2023-02-11T06:09:08.516Z,103474.41
2023-02-11T06:11:36.452Z,103486.91
2023-02-11T06:14:04.501Z,103490.47
2023-02-11T06:16:32.559Z,103499.41
2023-02-11T06:19:00.422Z,103505.69
2023-02-11T06:21:42.902Z,103502.09
2023-02-11T06:24:11.873Z,103511.06
2023-02-11T06:26:39.820Z,103496.72
2023-02-11T06:29:07.987Z,103514.66
2023-02-11T06:31:36.026Z,103509.28
2023-02-11T06:34:05.002Z,103491.38
2023-02-11T06:36:34.754Z,103484.22
2023-02-11T06:39:02.682Z,103493.19
2023-02-11T06:41:30.645Z,103509.25
2023-02-11T06:43:58.596Z,103513.72
2023-02-11T06:46:26.714Z,103513.69
2023-02-11T06:48:54.757Z,103521.75
2023-02-11T06:51:22.884Z,103531.59
2023-02-11T06:53:52.489Z,103528.06
2023-02-11T06:56:23.166Z,103514.66
2023-02-11T06:58:54.684Z,103514.66
2023-02-11T07:01:22.930Z,103503.03
2023-02-11T07:03:51.822Z,103499.47
2023-02-11T07:06:22.825Z,103486.91
2023-02-11T07:08:52.204Z,103480.66
2023-02-11T07:11:24.286Z,103484.25
2023-02-11T07:13:52.814Z,103477.09
2023-02-11T07:16:20.940Z,103464.59
2023-02-11T07:18:49.992Z,103456.56
2023-02-11T07:21:20.723Z,103458.31
2023-02-11T07:23:49.516Z,103457.44
2023-02-11T07:26:21.352Z,103454.75
2023-02-11T07:28:49.610Z,103445.81
2023-02-11T07:31:20.043Z,103447.59
2023-02-11T07:33:48.138Z,103438.66
2023-02-11T07:36:17.742Z,103452.06
2023-02-11T07:38:45.759Z,103468.16
2023-02-11T07:41:15.233Z,103469.06
2023-02-11T07:43:45.823Z,103475.34
2023-02-11T07:46:15.641Z,103481.56
2023-02-11T07:48:43.929Z,103482.47
2023-02-11T07:51:13.721Z,103470.84
2023-02-11T07:53:41.942Z,103448.50
2023-02-11T07:56:11.614Z,103444.03
2023-02-11T07:58:42.164Z,103444.94
2023-02-11T08:01:14.316Z,103448.50
2023-02-11T08:03:43.271Z,103452.06
2023-02-11T08:06:13.248Z,103449.38
2023-02-11T08:08:41.495Z,103436.84
2023-02-11T08:11:10.685Z,103424.31
2023-02-11T08:13:39.204Z,103424.34
2023-02-11T08:16:08.157Z,103412.72
2023-02-11T08:18:37.886Z,103412.72
2023-02-11T08:21:06.969Z,103410.94
2023-02-11T08:23:35.275Z,103427.03
2023-02-11T08:26:03.947Z,103432.38
2023-02-11T08:28:33.320Z,103447.59
2023-02-11T08:31:07.181Z,103448.47
2023-02-11T08:33:35.890Z,103457.44
2023-02-11T08:36:10.239Z,103463.69
2023-02-11T08:38:38.489Z,103441.31
2023-02-11T08:41:06.690Z,103438.63
2023-02-11T08:43:35.035Z,103424.31
2023-02-11T08:46:03.812Z,103423.44
2023-02-11T08:48:31.790Z,103413.59
2023-02-11T08:50:59.878Z,103399.25
2023-02-11T08:53:29.231Z,103395.66
2023-02-11T08:55:58.146Z,103400.16
2023-02-11T08:58:26.298Z,103393.88
2023-02-11T09:00:54.633Z,103399.25
2023-02-11T09:03:22.886Z,103394.78
2023-02-11T09:05:53.219Z,103384.91
2023-02-11T09:08:21.723Z,103374.16
2023-02-11T09:10:51.498Z,103365.22
2023-02-11T09:13:19.477Z,103369.72
2023-02-11T09:15:47.945Z,103383.97
2023-02-11T09:18:15.962Z,103386.59
2023-02-11T09:20:43.859Z,103373.13
2023-02-11T09:23:12.491Z,103355.28
2023-02-11T09:25:41.285Z,103355.22
2023-02-11T09:28:12.430Z,103339.16
2023-02-11T09:30:43.542Z,103334.72
2023-02-11T09:33:11.512Z,103329.28
2023-02-11T09:35:39.479Z,103339.19
2023-02-11T09:38:07.500Z,103341.84
2023-02-11T09:40:35.441Z,103342.66
2023-02-11T09:43:08.895Z,103334.59
2023-02-11T09:45:38.541Z,103328.31
2023-02-11T09:48:14.956Z,103330.13
2023-02-11T09:50:45.474Z,103322.13
2023-02-11T09:53:19.381Z,103323.97
2023-02-11T09:55:49.369Z,103332.81
2023-02-11T09:58:27.530Z,103345.38
2023-02-11T10:01:06.873Z,103344.38
2023-02-11T10:03:54.861Z,103336.34
2023-02-11T10:06:37.792Z,103347.94
2023-02-11T10:09:19.930Z,103342.41
2023-02-11T10:11:59.928Z,103338.78
2023-02-11T10:14:46.589Z,103337.03
2023-02-11T10:17:27.236Z,103327.16
2023-02-11T10:20:07.653Z,103326.28
2023-02-11T10:22:42.643Z,103318.28
2023-02-11T10:25:21.222Z,103305.66
2023-02-11T10:27:49.946Z,103298.53
2023-02-11T10:30:26.331Z,103299.50
2023-02-11T10:33:01.888Z,103319.09
2023-02-11T10:35:29.912Z,103331.19
2023-02-11T10:37:58.105Z,103343.88
2023-02-11T10:40:28.333Z,103318.03
2023-02-11T10:42:59.155Z,103312.72
2023-02-11T10:45:31.665Z,103322.44
2023-02-11T10:48:02.238Z,103313.63
2023-02-11T10:50:33.437Z,103311.88
2023-02-11T10:53:14.619Z,103311.06
2023-02-11T10:55:51.697Z,103309.28
2023-02-11T10:58:26.881Z,103325.31
2023-02-11T11:00:56.902Z,103323.53
2023-02-11T11:03:28.581Z,103336.09
2023-02-11T11:05:58.858Z,103345.00
2023-02-11T11:08:40.784Z,103348.59
2023-02-11T11:11:10.692Z,103355.59
2023-02-11T11:13:40.560Z,103340.56
2023-02-11T11:16:18.276Z,103341.59
2023-02-11T11:18:49.164Z,103344.22
2023-02-11T11:21:21.181Z,103347.78
2023-02-11T11:23:52.706Z,103360.28
2023-02-11T11:26:21.218Z,103373.56
2023-02-11T11:28:57.041Z,103370.13
2023-02-11T11:31:27.823Z,103365.59
2023-02-11T11:33:59.655Z,103350.38
2023-02-11T11:36:35.928Z,103361.00
2023-02-11T11:39:18.016Z,103352.09
2023-02-11T11:41:52.753Z,103349.47
2023-02-11T11:44:27.738Z,103354.81
2023-02-11T11:47:21.325Z,103360.19
2023-02-11T11:50:06.693Z,103360.09
2023-02-11T11:52:41.189Z,103352.97
2023-02-11T11:55:18.702Z,103341.41
2023-02-11T11:57:46.783Z,103338.72
2023-02-11T12:00:21.034Z,103347.50
2023-02-11T12:03:36.897Z,103352.16
2023-02-11T12:06:22.918Z,103334.25
2023-02-11T12:09:02.909Z,103348.31
2023-02-11T12:11:39.576Z,103339.50
2023-02-11T12:14:25.039Z,103346.53
2023-02-11T12:17:02.431Z,103343.94
2023-02-11T12:19:54.941Z,103338.56
2023-02-11T12:22:35.801Z,103351.81
2023-02-11T12:25:21.418Z,103337.63
2023-02-11T12:27:57.475Z,103334.88
2023-02-11T12:30:45.628Z,103337.53
2023-02-11T12:33:24.606Z,103333.09
2023-02-11T12:36:00.333Z,103327.66
2023-02-11T12:38:44.946Z,103324.94
2023-02-11T12:41:43.581Z,103325.75
2023-02-11T12:44:20.872Z,103321.19
2023-02-11T12:46:55.677Z,103314.03
2023-02-11T12:49:37.693Z,103320.47
2023-02-11T12:52:32.376Z,103317.66
2023-02-11T12:55:05.982Z,103315.00
2023-02-11T12:57:37.382Z,103301.50
2023-02-11T13:00:14.447Z,103290.75
2023-02-11T13:02:48.539Z,103289.84
2023-02-11T13:05:26.769Z,103288.09
2023-02-11T13:08:01.018Z,103289.75
2023-02-11T13:10:35.843Z,103287.84
2023-02-11T13:13:18.608Z,103286.09
2023-02-11T13:15:51.124Z,103287.94
2023-02-11T13:18:28.201Z,103295.91
2023-02-11T13:21:03.826Z,103291.38
2023-02-11T13:23:41.929Z,103283.38
2023-02-11T13:26:18.574Z,103283.44
2023-02-11T13:28:53.206Z,103284.09
2023-02-11T13:31:21.287Z,103286.66
2023-02-11T13:33:49.989Z,103268.69
2023-02-11T13:36:20.691Z,103274.06
2023-02-11T13:39:07.831Z,103274.22
2023-02-11T13:41:40.947Z,103274.34
2023-02-11T13:44:27.578Z,103282.34
2023-02-11T13:46:59.714Z,103285.09
2023-02-11T13:49:32.482Z,103288.75
2023-02-11T13:52:02.790Z,103276.06
2023-02-11T13:54:35.056Z,103269.81
2023-02-11T13:57:33.733Z,103264.16
2023-02-11T14:00:09.556Z,103256.16
2023-02-11T14:02:56.271Z,103266.09
2023-02-11T14:05:47.944Z,103265.13
2023-02-11T14:08:49.243Z,103259.59
2023-02-11T14:11:44.863Z,103258.00
2023-02-11T14:14:21.871Z,103255.34
2023-02-11T14:17:31.008Z,103253.50
2023-02-11T14:20:00.238Z,103266.78
2023-02-11T14:22:30.265Z,103263.97
2023-02-11T14:25:00.882Z,103265.00
2023-02-11T14:27:33.058Z,103262.25
2023-02-11T14:30:21.390Z,103253.25
2023-02-11T14:33:10.236Z,103244.19
2023-02-11T14:35:49.071Z,103244.06
2023-02-11T14:38:25.187Z,103243.47
2023-02-11T14:40:59.698Z,103253.13
2023-02-11T14:43:32.228Z,103250.41
2023-02-11T14:46:03.904Z,103255.69
2023-02-11T14:48:35.365Z,103247.44
2023-02-11T14:51:07.735Z,103242.97
2023-02-11T14:53:37.544Z,103247.72
2023-02-11T14:56:19.493Z,103253.22
2023-02-11T14:58:48.471Z,103255.16
2023-02-11T15:01:31.982Z,103253.34
2023-02-11T15:04:01.286Z,103255.63
2023-02-11T15:06:32.773Z,103260.94
2023-02-11T15:09:03.802Z,103253.81
2023-02-11T15:11:35.013Z,103255.66
2023-02-11T15:14:10.812Z,103246.84
2023-02-11T15:16:45.947Z,103251.38
2023-02-11T15:19:22.526Z,103250.69
2023-02-11T15:21:51.939Z,103255.22
2023-02-11T15:24:25.536Z,103259.59
2023-02-11T15:27:01.901Z,103265.81
2023-02-11T15:29:38.045Z,103260.53
2023-02-11T15:32:14.763Z,103266.03
2023-02-11T15:34:42.881Z,103275.78
2023-02-11T15:37:14.305Z,103280.28
2023-02-11T15:39:43.263Z,103276.69
2023-02-11T15:42:19.286Z,103280.16
2023-02-11T15:44:56.398Z,103281.28
2023-02-11T15:47:26.298Z,103284.84
2023-02-11T15:49:56.831Z,103279.44
2023-02-11T15:52:27.499Z,103282.25
2023-02-11T15:54:59.538Z,103298.47
2023-02-11T15:57:27.744Z,103299.38
2023-02-11T15:59:56.791Z,103310.22
2023-02-11T16:02:32.488Z,103304.84
2023-02-11T16:05:03.480Z,103313.78
2023-02-11T16:07:43.464Z,103307.38
2023-02-11T16:10:23.304Z,103323.50
2023-02-11T16:12:57.323Z,103308.25
2023-02-11T16:15:43.432Z,103317.06
2023-02-11T16:18:37.890Z,103319.94
2023-02-11T16:21:13.517Z,103319.13
2023-02-11T16:23:43.220Z,103325.41
2023-02-11T16:26:21.724Z,103328.84
2023-02-11T16:28:50.218Z,103323.25
2023-02-11T16:31:18.577Z,103321.78
2023-02-11T16:33:48.171Z,103310.94
2023-02-11T16:36:18.237Z,103320.97
2023-02-11T16:38:46.319Z,103330.53
2023-02-11T16:41:14.390Z,103328.91
2023-02-11T16:43:42.211Z,103336.13
2023-02-11T16:46:15.347Z,103336.81
2023-02-11T16:48:43.505Z,103331.91
2023-02-11T16:51:13.673Z,103332.25
2023-02-11T16:53:41.741Z,103322.53
2023-02-11T16:56:15.409Z,103332.47
2023-02-11T16:58:43.468Z,103320.78
2023-02-11T17:01:14.100Z,103323.47
2023-02-11T17:03:43.636Z,103332.66
2023-02-11T17:06:15.118Z,103330.97
2023-02-11T17:08:43.053Z,103338.13
2023-02-11T17:11:11.055Z,103348.00
2023-02-11T17:13:39.553Z,103365.00
2023-02-11T17:16:12.382Z,103371.34
2023-02-11T17:18:40.316Z,103379.47
2023-02-11T17:21:08.764Z,103375.88
2023-02-11T17:23:38.678Z,103382.13
2023-02-11T17:26:07.638Z,103382.88
2023-02-11T17:28:35.873Z,103393.53
2023-02-11T17:31:08.842Z,103388.16
2023-02-11T17:33:37.818Z,103379.34
2023-02-11T17:36:07.719Z,103373.25
2023-02-11T17:38:35.804Z,103383.03
2023-02-11T17:41:06.120Z,103379.41
2023-02-11T17:43:34.073Z,103387.50
2023-02-11T17:46:02.087Z,103388.50
2023-02-11T17:48:30.007Z,103389.34
2023-02-11T17:50:57.926Z,103394.66
2023-02-11T17:53:25.792Z,103395.63
2023-02-11T17:55:55.971Z,103401.97
2023-02-11T17:58:25.409Z,103399.28
2023-02-11T18:00:53.342Z,103408.19
2023-02-11T18:03:21.277Z,103418.06
2023-02-11T18:05:49.680Z,103422.53
2023-02-11T18:08:17.859Z,103436.88
2023-02-11T18:10:46.269Z,103447.63
2023-02-11T18:13:14.285Z,103444.88
2023-02-11T18:15:44.016Z,103454.81
2023-02-11T18:18:11.983Z,103456.66
2023-02-11T18:20:40.627Z,103455.75
2023-02-11T18:23:08.637Z,103456.66
2023-02-11T18:25:36.578Z,103450.41
2023-02-11T18:28:04.670Z,103459.28
2023-02-11T18:30:35.749Z,103461.16
2023-02-11T18:33:08.817Z,103455.81
2023-02-11T18:35:38.768Z,103453.13
2023-02-11T18:38:06.680Z,103447.72
2023-02-11T18:40:35.465Z,103453.09
2023-02-11T18:43:03.408Z,103461.22
2023-02-11T18:45:31.459Z,103469.19
2023-02-11T18:48:01.571Z,103468.25
2023-02-11T18:50:31.024Z,103468.28
2023-02-11T18:52:59.120Z,103473.63
2023-02-11T18:55:27.260Z,103464.69
2023-02-11T18:57:55.245Z,103467.38
2023-02-11T19:00:23.746Z,103458.41
2023-02-11T19:02:53.004Z,103471.84
2023-02-11T19:05:21.592Z,103471.00
2023-02-11T19:07:50.988Z,103479.16
2023-02-11T19:10:19.156Z,103479.91
2023-02-11T19:12:47.047Z,103488.03
2023-02-11T19:15:16.071Z,103491.66
2023-02-11T19:17:44.237Z,103489.91
2023-02-11T19:20:12.488Z,103496.16
2023-02-11T19:22:40.462Z,103515.00
2023-02-11T19:25:11.019Z,103501.53
2023-02-11T19:27:41.883Z,103508.72
2023-02-11T19:30:11.240Z,103507.94
2023-02-11T19:32:39.086Z,103515.94
2023-02-11T19:35:07.744Z,103539.28
2023-02-11T19:37:35.767Z,103535.69
2023-02-11T19:40:03.683Z,103542.88
2023-02-11T19:42:32.942Z,103548.22
2023-02-11T19:45:00.848Z,103553.59
2023-02-11T19:47:28.724Z,103557.22
2023-02-11T19:49:56.949Z,103558.13
2023-02-11T19:52:24.834Z,103569.78
2023-02-11T19:54:53.037Z,103576.97
2023-02-11T19:57:21.053Z,103576.00
2023-02-11T19:59:50.944Z,103575.16
2023-02-11T20:02:18.848Z,103567.03
2023-02-11T20:04:46.988Z,103556.28
2023-02-11T20:07:14.884Z,103558.19
2023-02-11T20:09:43.066Z,103566.22
2023-02-11T20:12:12.067Z,103562.63
2023-02-11T20:14:39.959Z,103569.84
2023-02-11T20:17:09.646Z,103566.22
2023-02-11T20:19:37.627Z,103574.31
2023-02-11T20:22:05.570Z,103566.19
2023-02-11T20:24:33.514Z,103566.19
2023-02-11T20:27:01.369Z,103550.13
2023-02-11T20:29:31.157Z,103541.09
2023-02-11T20:31:59.318Z,103535.78
2023-02-11T20:34:29.467Z,103531.25
2023-02-11T20:36:57.409Z,103531.22
2023-02-11T20:39:26.965Z,103536.59
2023-02-11T20:41:56.534Z,103538.44
2023-02-11T20:44:24.689Z,103533.94
2023-02-11T20:46:54.057Z,103533.91
2023-02-11T20:49:25.203Z,103526.78
2023-02-11T20:51:55.674Z,103526.78
2023-02-11T20:54:24.929Z,103515.16
2023-02-11T20:56:53.890Z,103506.22
2023-02-11T20:59:23.697Z,103507.09
2023-02-11T21:01:55.392Z,103516.03
2023-02-11T21:04:26.175Z,103507.94
2023-02-11T21:06:58.600Z,103512.41
2023-02-11T21:09:28.367Z,103508.88
2023-02-11T21:11:56.942Z,103508.00
2023-02-11T21:14:26.425Z,103508.91
2023-02-11T21:16:54.287Z,103508.91
2023-02-11T21:19:22.462Z,103512.50
2023-02-11T21:21:50.467Z,103509.81
2023-02-11T21:24:19.839Z,103498.13
2023-02-11T21:26:47.747Z,103487.41
2023-02-11T21:29:15.816Z,103485.63
2023-02-11T21:31:43.821Z,103487.44
2023-02-11T21:34:12.045Z,103483.84
2023-02-11T21:36:40.267Z,103487.41
2023-02-11T21:39:08.984Z,103484.69
2023-02-11T21:41:38.287Z,103480.22
2023-02-11T21:44:06.399Z,103476.66
2023-02-11T21:46:34.232Z,103483.84
2023-02-11T21:49:02.119Z,103484.75
2023-02-11T21:51:30.509Z,103482.88
2023-02-11T21:54:01.159Z,103485.56
2023-02-11T21:56:30.178Z,103481.06
2023-02-11T21:59:01.096Z,103477.47
2023-02-11T22:01:31.878Z,103477.53
2023-02-11T22:04:00.241Z,103471.22
2023-02-11T22:06:31.324Z,103467.66
2023-02-11T22:09:00.263Z,103465.84
2023-02-11T22:11:28.183Z,103469.41
2023-02-11T22:13:57.975Z,103459.56
2023-02-11T22:16:28.499Z,103452.41
2023-02-11T22:18:58.640Z,103449.75
2023-02-11T22:21:27.390Z,103452.44
2023-02-11T22:23:56.053Z,103456.06
2023-02-11T22:26:25.619Z,103459.59
2023-02-11T22:28:54.913Z,103455.09
2023-02-11T22:31:25.145Z,103444.34
2023-02-11T22:33:54.572Z,103438.09
2023-02-11T22:36:24.337Z,103445.28
2023-02-11T22:38:53.052Z,103438.09
2023-02-11T22:41:21.664Z,103439.84
2023-02-11T22:43:49.872Z,103429.16
2023-02-11T22:46:20.102Z,103438.09
2023-02-11T22:48:48.870Z,103442.63
2023-02-11T22:51:20.450Z,103438.16
2023-02-11T22:53:53.139Z,103442.59
2023-02-11T22:56:22.082Z,103436.34
2023-02-11T22:58:50.745Z,103443.53
2023-02-11T23:01:19.053Z,103440.00
2023-02-11T23:03:47.210Z,103445.34
2023-02-11T23:06:15.647Z,103443.53
2023-02-11T23:08:45.451Z,103454.31
2023-02-11T23:11:15.982Z,103436.38
2023-02-11T23:13:45.060Z,103446.13
2023-02-11T23:16:15.714Z,103438.94
2023-02-11T23:18:45.063Z,103438.97
2023-02-11T23:21:16.903Z,103428.25
2023-02-11T23:23:46.898Z,103429.94
2023-02-11T23:26:17.529Z,103431.75
2023-02-11T23:28:46.256Z,103429.09
2023-02-11T23:31:19.452Z,103433.59
2023-02-11T23:33:48.417Z,103435.41
2023-02-11T23:36:17.218Z,103428.25
2023-02-11T23:38:46.799Z,103434.53
2023-02-11T23:41:15.249Z,103429.09
2023-02-11T23:43:43.691Z,103431.84
2023-02-11T23:46:12.188Z,103430.06
2023-02-11T23:48:40.515Z,103425.59
2023-02-11T23:51:09.712Z,103422.97
2023-02-11T23:53:38.127Z,103419.44
2023-02-11T23:56:10.373Z,103429.25
2023-02-11T23:58:38.355Z,103439.09
